sensor_id;sensor_type;location;lat;lon;timestamp;pressure;altitude;pressure_sealevel;temperature;humidity
49459;BME280;35354;51.296;16.924;2023-01-29T00:01:20;100746.75;;;-0.22;87.96
49459;BME280;35354;51.296;16.924;2023-01-29T00:03:49;100744.13;;;-0.29;88.10
49459;BME280;35354;51.296;16.924;2023-01-29T00:06:14;100725.97;;;-0.42;88.01
49459;BME280;35354;51.296;16.924;2023-01-29T00:08:40;100745.75;;;-0.34;88.91
49459;BME280;35354;51.296;16.924;2023-01-29T00:11:07;100704.44;;;-0.57;88.39
49459;BME280;35354;51.296;16.924;2023-01-29T00:13:33;100701.81;;;-0.63;89.48
49459;BME280;35354;51.296;16.924;2023-01-29T00:15:59;100736.94;;;-0.53;88.83
49459;BME280;35354;51.296;16.924;2023-01-29T00:18:26;100721.38;;;-0.65;89.66
49459;BME280;35354;51.296;16.924;2023-01-29T00:20:52;100723.13;;;-0.62;90.03
49459;BME280;35354;51.296;16.924;2023-01-29T00:23:17;100723.16;;;-0.59;89.88
49459;BME280;35354;51.296;16.924;2023-01-29T00:25:44;100684.63;;;-0.70;89.91
49459;BME280;35354;51.296;16.924;2023-01-29T00:28:09;100697.69;;;-0.52;90.08
49459;BME280;35354;51.296;16.924;2023-01-29T00:30:35;100683.19;;;-0.54;89.74
49459;BME280;35354;51.296;16.924;2023-01-29T00:33:01;100681.41;;;-0.57;89.91
49459;BME280;35354;51.296;16.924;2023-01-29T00:35:26;100678.00;;;-0.56;89.44
49459;BME280;35354;51.296;16.924;2023-01-29T00:37:54;100660.94;;;-0.58;89.57
49459;BME280;35354;51.296;16.924;2023-01-29T00:40:19;100678.31;;;-0.37;89.54
49459;BME280;35354;51.296;16.924;2023-01-29T00:42:44;100684.28;;;-0.35;89.09
49459;BME280;35354;51.296;16.924;2023-01-29T00:45:28;100673.19;;;-0.36;89.08
49459;BME280;35354;51.296;16.924;2023-01-29T00:47:53;100671.41;;;-0.41;89.19
49459;BME280;35354;51.296;16.924;2023-01-29T00:50:19;100644.59;;;-0.66;89.17
49459;BME280;35354;51.296;16.924;2023-01-29T00:52:44;100650.56;;;-0.67;89.95
49459;BME280;35354;51.296;16.924;2023-01-29T00:55:10;100669.47;;;-0.56;89.37
49459;BME280;35354;51.296;16.924;2023-01-29T00:57:36;100672.97;;;-0.51;89.70
49459;BME280;35354;51.296;16.924;2023-01-29T01:00:04;100649.84;;;-0.57;88.97
49459;BME280;35354;51.296;16.924;2023-01-29T01:02:30;100666.97;;;-0.53;89.79
49459;BME280;35354;51.296;16.924;2023-01-29T01:05:17;100660.03;;;-0.60;89.84
49459;BME280;35354;51.296;16.924;2023-01-29T01:07:48;100630.81;;;-0.76;89.25
49459;BME280;35354;51.296;16.924;2023-01-29T01:10:19;100648.88;;;-0.65;89.16
49459;BME280;35354;51.296;16.924;2023-01-29T01:12:45;100637.63;;;-0.77;89.32
49459;BME280;35354;51.296;16.924;2023-01-29T01:15:10;100671.16;;;-0.58;89.83
49459;BME280;35354;51.296;16.924;2023-01-29T01:17:36;100654.84;;;-0.65;89.59
49459;BME280;35354;51.296;16.924;2023-01-29T01:20:02;100658.38;;;-0.57;89.65
49459;BME280;35354;51.296;16.924;2023-01-29T01:22:27;100667.81;;;-0.54;89.68
49459;BME280;35354;51.296;16.924;2023-01-29T01:24:52;100639.44;;;-0.69;90.39
49459;BME280;35354;51.296;16.924;2023-01-29T01:27:18;100628.34;;;-0.70;90.09
49459;BME280;35354;51.296;16.924;2023-01-29T01:29:44;100661.13;;;-0.44;90.07
49459;BME280;35354;51.296;16.924;2023-01-29T01:32:11;100643.16;;;-0.47;90.07
49459;BME280;35354;51.296;16.924;2023-01-29T01:34:36;100633.03;;;-0.40;90.01
49459;BME280;35354;51.296;16.924;2023-01-29T01:37:01;100642.47;;;-0.37;90.27
49459;BME280;35354;51.296;16.924;2023-01-29T01:39:27;100636.44;;;-0.39;89.40
49459;BME280;35354;51.296;16.924;2023-01-29T01:41:53;100648.50;;;-0.32;89.55
49459;BME280;35354;51.296;16.924;2023-01-29T01:47:29;100612.56;;;-0.40;89.24
49459;BME280;35354;51.296;16.924;2023-01-29T01:50:08;100638.31;;;-0.26;88.77
49459;BME280;35354;51.296;16.924;2023-01-29T01:52:38;100635.75;;;-0.28;89.49
49459;BME280;35354;51.296;16.924;2023-01-29T01:55:06;100642.66;;;-0.23;89.63
49459;BME280;35354;51.296;16.924;2023-01-29T01:57:33;100642.66;;;-0.23;89.36
49459;BME280;35354;51.296;16.924;2023-01-29T02:00:05;100619.38;;;-0.39;88.99
49459;BME280;35354;51.296;16.924;2023-01-29T02:02:37;100618.53;;;-0.39;88.80
49459;BME280;35354;51.296;16.924;2023-01-29T02:05:22;100647.75;;;-0.25;89.20
49459;BME280;35354;51.296;16.924;2023-01-29T02:08:06;100640.84;;;-0.31;88.74
49459;BME280;35354;51.296;16.924;2023-01-29T02:10:51;100621.09;;;-0.41;88.60
49459;BME280;35354;51.296;16.924;2023-01-29T02:13:17;100639.13;;;-0.30;88.45
49459;BME280;35354;51.296;16.924;2023-01-29T02:15:46;100598.75;;;-0.53;88.36
49459;BME280;35354;51.296;16.924;2023-01-29T02:18:14;100615.97;;;-0.41;88.42
49459;BME280;35354;51.296;16.924;2023-01-29T02:21:14;100638.38;;;-0.23;88.18
49459;BME280;35354;51.296;16.924;2023-01-29T02:26:57;100636.72;;;-0.21;88.14
49459;BME280;35354;51.296;16.924;2023-01-29T02:29:33;100644.41;;;-0.21;88.33
49459;BME280;35354;51.296;16.924;2023-01-29T02:32:08;100615.19;;;-0.35;88.05
49459;BME280;35354;51.296;16.924;2023-01-29T02:46:34;100632.34;;;-0.27;86.50
49459;BME280;35354;51.296;16.924;2023-01-29T02:49:09;100603.13;;;-0.44;86.58
49459;BME280;35354;51.296;16.924;2023-01-29T02:52:04;100637.50;;;-0.25;86.30
49459;BME280;35354;51.296;16.924;2023-01-29T02:54:45;100639.22;;;-0.24;86.16
49459;BME280;35354;51.296;16.924;2023-01-29T02:57:23;100612.56;;;-0.40;86.18
49459;BME280;35354;51.296;16.924;2023-01-29T02:59:54;100637.56;;;-0.20;85.41
49459;BME280;35354;51.296;16.924;2023-01-29T03:02:28;100628.94;;;-0.26;85.71
49459;BME280;35354;51.296;16.924;2023-01-29T03:04:59;100597.09;;;-0.49;85.39
49459;BME280;35354;51.296;16.924;2023-01-29T03:07:29;100644.28;;;-0.27;nan
49459;BME280;35354;51.296;16.924;2023-01-29T03:12:38;100585.16;;;-0.48;85.30
49459;BME280;35354;51.296;16.924;2023-01-29T03:15:11;100625.53;;;-0.26;85.52
49459;BME280;35354;51.296;16.924;2023-01-29T03:17:54;100610.97;;;-0.33;85.59
49459;BME280;35354;51.296;16.924;2023-01-29T03:20:25;100634.16;;;-0.18;85.32
49459;BME280;35354;51.296;16.924;2023-01-29T03:23:04;100630.66;;;-0.26;85.52
49459;BME280;35354;51.296;16.924;2023-01-29T03:25:33;100646.16;;;-0.15;84.95
49459;BME280;35354;51.296;16.924;2023-01-29T03:28:20;100621.25;;;-0.29;83.95
49459;BME280;35354;51.296;16.924;2023-01-29T03:31:07;100619.50;;;-0.31;84.62
49459;BME280;35354;51.296;16.924;2023-01-29T03:33:59;100652.13;;;-0.16;85.06
49459;BME280;35354;51.296;16.924;2023-01-29T03:36:33;100622.28;;;-0.14;85.41
49459;BME280;35354;51.296;16.924;2023-01-29T03:39:07;100599.03;;;-0.30;85.01
49459;BME280;35354;51.296;16.924;2023-01-29T03:42:01;100621.41;;;-0.16;84.56
49459;BME280;35354;51.296;16.924;2023-01-29T03:44:38;100612.81;;;-0.20;84.59
49459;BME280;35354;51.296;16.924;2023-01-29T03:47:22;100590.50;;;-0.30;84.65
49459;BME280;35354;51.296;16.924;2023-01-29T03:50:37;100623.06;;;-0.18;84.50
49459;BME280;35354;51.296;16.924;2023-01-29T03:53:50;100597.31;;;-0.32;84.38
49459;BME280;35354;51.296;16.924;2023-01-29T03:58:46;100617.94;;;-0.18;84.65
49459;BME280;35354;51.296;16.924;2023-01-29T04:01:38;100591.28;;;-0.34;84.54
49459;BME280;35354;51.296;16.924;2023-01-29T04:04:08;100609.34;;;-0.25;84.96
49459;BME280;35354;51.296;16.924;2023-01-29T04:06:36;100605.84;;;-0.30;84.92
49459;BME280;35354;51.296;16.924;2023-01-29T04:09:13;100628.16;;;-0.21;84.44
49459;BME280;35354;51.296;16.924;2023-01-29T04:11:47;100602.38;;;-0.37;84.74
49459;BME280;35354;51.296;16.924;2023-01-29T04:14:14;100595.53;;;-0.36;84.85
49459;BME280;35354;51.296;16.924;2023-01-29T04:16:47;100621.31;;;-0.24;84.56
49459;BME280;35354;51.296;16.924;2023-01-29T04:19:15;100583.59;;;-0.37;84.84
49459;BME280;35354;51.296;16.924;2023-01-29T04:21:40;100600.78;;;-0.26;84.69
49459;BME280;35354;51.296;16.924;2023-01-29T04:24:06;100592.13;;;-0.35;85.08
49459;BME280;35354;51.296;16.924;2023-01-29T04:26:47;100608.50;;;-0.24;84.80
49459;BME280;35354;51.296;16.924;2023-01-29T04:29:32;100588.81;;;-0.28;84.86
49459;BME280;35354;51.296;16.924;2023-01-29T04:32:10;100579.50;;;-0.23;84.29
49459;BME280;35354;51.296;16.924;2023-01-29T04:35:13;100582.00;;;-0.26;84.84
49459;BME280;35354;51.296;16.924;2023-01-29T04:40:19;100567.50;;;-0.27;84.37
49459;BME280;35354;51.296;16.924;2023-01-29T04:42:56;100547.66;;;-0.43;85.03
49459;BME280;35354;51.296;16.924;2023-01-29T04:45:39;100565.75;;;-0.31;85.20
49459;BME280;35354;51.296;16.924;2023-01-29T04:48:25;100562.38;;;-0.26;84.42
49459;BME280;35354;51.296;16.924;2023-01-29T04:51:14;100564.94;;;-0.26;84.51
49459;BME280;35354;51.296;16.924;2023-01-29T04:56:56;100559.81;;;-0.26;84.95
49459;BME280;35354;51.296;16.924;2023-01-29T04:59:35;100553.09;;;-0.20;84.73
49459;BME280;35354;51.296;16.924;2023-01-29T05:02:03;100552.25;;;-0.19;84.78
49459;BME280;35354;51.296;16.924;2023-01-29T05:04:32;100505.78;;;-0.52;84.23
49459;BME280;35354;51.296;16.924;2023-01-29T05:07:04;100550.50;;;-0.22;84.04
49459;BME280;35354;51.296;16.924;2023-01-29T05:09:32;100539.38;;;-0.24;84.47
49459;BME280;35354;51.296;16.924;2023-01-29T05:11:59;100538.53;;;-0.21;84.98
49459;BME280;35354;51.296;16.924;2023-01-29T05:14:27;100534.28;;;-0.22;84.25
49459;BME280;35354;51.296;16.924;2023-01-29T05:16:56;100526.50;;;-0.30;83.81
49459;BME280;35354;51.296;16.924;2023-01-29T05:19:24;100515.31;;;-0.38;84.02
49459;BME280;35354;51.296;16.924;2023-01-29T05:21:50;100501.66;;;-0.42;84.42
49459;BME280;35354;51.296;16.924;2023-01-29T05:24:18;100494.72;;;-0.49;84.51
49459;BME280;35354;51.296;16.924;2023-01-29T05:26:47;100505.78;;;-0.53;84.86
49459;BME280;35354;51.296;16.924;2023-01-29T05:29:31;100497.09;;;-0.64;84.46
49459;BME280;35354;51.296;16.924;2023-01-29T05:31:56;100515.03;;;-0.63;84.91
49459;BME280;35354;51.296;16.924;2023-01-29T05:34:22;100500.41;;;-0.73;85.15
49459;BME280;35354;51.296;16.924;2023-01-29T05:36:48;100505.41;;;-0.81;85.08
49459;BME280;35354;51.296;16.924;2023-01-29T05:39:13;100500.28;;;-0.84;85.19
49459;BME280;35354;51.296;16.924;2023-01-29T05:41:38;100513.06;;;-0.81;85.65
49459;BME280;35354;51.296;16.924;2023-01-29T05:44:04;100501.88;;;-0.90;85.67
49459;BME280;35354;51.296;16.924;2023-01-29T05:46:30;100483.75;;;-1.06;85.52
49459;BME280;35354;51.296;16.924;2023-01-29T05:48:55;100523.19;;;-0.91;86.14
49459;BME280;35354;51.296;16.924;2023-01-29T05:51:20;100519.66;;;-0.98;86.39
49459;BME280;35354;51.296;16.924;2023-01-29T05:53:46;100514.53;;;-1.01;86.59
49459;BME280;35354;51.296;16.924;2023-01-29T05:56:11;100519.59;;;-1.04;86.87
49459;BME280;35354;51.296;16.924;2023-01-29T05:58:36;100506.56;;;-1.21;86.85
49459;BME280;35354;51.296;16.924;2023-01-29T06:01:10;100509.97;;;-1.22;86.53
49459;BME280;35354;51.296;16.924;2023-01-29T06:03:35;100536.50;;;-1.12;86.59
49459;BME280;35354;51.296;16.924;2023-01-29T06:06:01;100532.13;;;-1.21;86.44
49459;BME280;35354;51.296;16.924;2023-01-29T06:08:26;100502.97;;;-1.34;86.62
49459;BME280;35354;51.296;16.924;2023-01-29T06:10:52;100516.59;;;-1.32;86.68
49459;BME280;35354;51.296;16.924;2023-01-29T06:13:17;100512.34;;;-1.33;87.16
49459;BME280;35354;51.296;16.924;2023-01-29T06:15:42;100544.84;;;-1.22;87.47
49459;BME280;35354;51.296;16.924;2023-01-29T06:18:08;100526.97;;;-1.24;87.62
49459;BME280;35354;51.296;16.924;2023-01-29T06:20:33;100513.97;;;-1.38;87.18
49459;BME280;35354;51.296;16.924;2023-01-29T06:22:58;100515.69;;;-1.38;86.87
49459;BME280;35354;51.296;16.924;2023-01-29T06:25:24;100502.06;;;-1.37;86.90
49459;BME280;35354;51.296;16.924;2023-01-29T06:27:50;100514.13;;;-1.27;86.77
49459;BME280;35354;51.296;16.924;2023-01-29T06:30:15;100533.28;;;-0.99;87.63
49459;BME280;35354;51.296;16.924;2023-01-29T06:32:41;100542.75;;;-0.93;86.56
49459;BME280;35354;51.296;16.924;2023-01-29T06:35:06;100548.75;;;-0.91;86.43
49459;BME280;35354;51.296;16.924;2023-01-29T06:37:34;100516.97;;;-1.09;86.48
49459;BME280;35354;51.296;16.924;2023-01-29T06:39:59;100529.81;;;-1.04;86.72
49459;BME280;35354;51.296;16.924;2023-01-29T06:42:24;100523.91;;;-1.00;86.79
49459;BME280;35354;51.296;16.924;2023-01-29T06:44:55;100524.78;;;-0.98;86.52
49459;BME280;35354;51.296;16.924;2023-01-29T06:47:21;100540.97;;;-0.97;86.85
49459;BME280;35354;51.296;16.924;2023-01-29T06:49:46;100577.06;;;-0.79;86.25
49459;BME280;35354;51.296;16.924;2023-01-29T06:52:11;100566.78;;;-0.81;86.37
49459;BME280;35354;51.296;16.924;2023-01-29T06:54:37;100550.56;;;-0.84;85.92
49459;BME280;35354;51.296;16.924;2023-01-29T06:57:02;100564.28;;;-0.79;86.11
49459;BME280;35354;51.296;16.924;2023-01-29T06:59:27;100576.38;;;-0.66;85.82
49459;BME280;35354;51.296;16.924;2023-01-29T07:01:53;100562.63;;;-0.76;85.56
49459;BME280;35354;51.296;16.924;2023-01-29T07:04:18;100556.59;;;-0.78;85.78
49459;BME280;35354;51.296;16.924;2023-01-29T07:06:43;100562.63;;;-0.72;85.38
49459;BME280;35354;51.296;16.924;2023-01-29T07:09:11;100580.78;;;-0.56;85.41
49459;BME280;35354;51.296;16.924;2023-01-29T07:11:38;100550.81;;;-0.66;85.26
49459;BME280;35354;51.296;16.924;2023-01-29T07:14:03;100589.50;;;-0.41;85.35
49459;BME280;35354;51.296;16.924;2023-01-29T07:16:29;100574.91;;;-0.50;84.91
49459;BME280;35354;51.296;16.924;2023-01-29T07:18:54;100578.38;;;-0.45;85.47
49459;BME280;35354;51.296;16.924;2023-01-29T07:21:19;100587.91;;;-0.33;84.95
49459;BME280;35354;51.296;16.924;2023-01-29T07:23:45;100557.91;;;-0.45;84.67
49459;BME280;35354;51.296;16.924;2023-01-29T07:26:10;100571.63;;;-0.38;84.40
49459;BME280;35354;51.296;16.924;2023-01-29T07:28:37;100569.03;;;-0.41;85.15
49459;BME280;35354;51.296;16.924;2023-01-29T07:31:03;100572.56;;;-0.32;84.82
49459;BME280;35354;51.296;16.924;2023-01-29T07:33:29;100590.63;;;-0.19;84.51
49459;BME280;35354;51.296;16.924;2023-01-29T07:35:54;100564.03;;;-0.34;84.15
49459;BME280;35354;51.296;16.924;2023-01-29T07:38:20;100581.19;;;-0.25;84.32
49459;BME280;35354;51.296;16.924;2023-01-29T07:40:46;100605.25;;;-0.12;84.18
49459;BME280;35354;51.296;16.924;2023-01-29T07:43:11;100589.69;;;-0.26;84.71
49459;BME280;35354;51.296;16.924;2023-01-29T07:45:37;100592.50;;;-0.08;84.40
49459;BME280;35354;51.296;16.924;2023-01-29T07:48:05;100550.53;;;-0.19;84.68
49459;BME280;35354;51.296;16.924;2023-01-29T07:50:31;100571.25;;;0.01;83.92
49459;BME280;35354;51.296;16.924;2023-01-29T07:52:57;100560.09;;;-0.01;83.90
49459;BME280;35354;51.296;16.924;2023-01-29T07:55:23;100522.41;;;-0.16;84.36
49459;BME280;35354;51.296;16.924;2023-01-29T07:57:55;100539.66;;;0.04;83.13
49459;BME280;35354;51.296;16.924;2023-01-29T08:00:21;100544.06;;;0.14;83.86
49459;BME280;35354;51.296;16.924;2023-01-29T08:02:46;100538.94;;;0.15;82.94
49459;BME280;35354;51.296;16.924;2023-01-29T08:05:12;100524.41;;;0.16;82.67
49459;BME280;35354;51.296;16.924;2023-01-29T08:07:37;100530.41;;;0.16;82.77
49459;BME280;35354;51.296;16.924;2023-01-29T08:10:03;100552.84;;;0.42;82.44
49459;BME280;35354;51.296;16.924;2023-01-29T08:12:29;100541.81;;;0.47;82.51
49459;BME280;35354;51.296;16.924;2023-01-29T08:14:54;100550.44;;;0.57;82.30
49459;BME280;35354;51.296;16.924;2023-01-29T08:17:20;100523.84;;;0.46;82.31
49459;BME280;35354;51.296;16.924;2023-01-29T08:19:45;100517.94;;;0.55;82.19
49459;BME280;35354;51.296;16.924;2023-01-29T08:22:10;100515.47;;;0.67;81.60
49459;BME280;35354;51.296;16.924;2023-01-29T08:24:35;100489.03;;;0.72;81.38
49459;BME280;35354;51.296;16.924;2023-01-29T08:27:01;100516.50;;;0.96;81.60
49459;BME280;35354;51.296;16.924;2023-01-29T08:29:26;100488.28;;;0.92;81.04
49459;BME280;35354;51.296;16.924;2023-01-29T08:31:51;100498.63;;;1.03;80.64
49459;BME280;35354;51.296;16.924;2023-01-29T08:34:17;100509.78;;;1.12;80.77
49459;BME280;35354;51.296;16.924;2023-01-29T08:36:42;100490.97;;;1.10;80.62
49459;BME280;35354;51.296;16.924;2023-01-29T08:39:08;100490.19;;;1.27;80.19
49459;BME280;35354;51.296;16.924;2023-01-29T08:41:33;100474.78;;;1.25;80.11
49459;BME280;35354;51.296;16.924;2023-01-29T08:43:58;100478.19;;;1.25;80.34
49459;BME280;35354;51.296;16.924;2023-01-29T08:46:26;100484.25;;;1.35;80.00
49459;BME280;35354;51.296;16.924;2023-01-29T08:48:51;100470.44;;;1.18;79.63
49459;BME280;35354;51.296;16.924;2023-01-29T08:51:17;100497.06;;;1.32;80.20
49459;BME280;35354;51.296;16.924;2023-01-29T08:53:42;100488.47;;;1.24;79.76
49459;BME280;35354;51.296;16.924;2023-01-29T08:56:08;100505.59;;;1.33;79.66
49459;BME280;35354;51.296;16.924;2023-01-29T08:58:33;100476.47;;;1.18;80.23
49459;BME280;35354;51.296;16.924;2023-01-29T09:01:09;100508.16;;;1.34;79.60
49459;BME280;35354;51.296;16.924;2023-01-29T09:03:35;100488.41;;;1.18;80.27
49459;BME280;35354;51.296;16.924;2023-01-29T09:06:01;100519.28;;;1.33;79.98
49459;BME280;35354;51.296;16.924;2023-01-29T09:08:27;100522.69;;;1.28;80.02
49459;BME280;35354;51.296;16.924;2023-01-29T09:10:52;100501.25;;;1.16;80.05
49459;BME280;35354;51.296;16.924;2023-01-29T09:13:17;100508.16;;;1.28;80.79
49459;BME280;35354;51.296;16.924;2023-01-29T09:15:43;100491.03;;;1.30;80.42
49459;BME280;35354;51.296;16.924;2023-01-29T09:18:08;100488.56;;;1.44;80.27
49459;BME280;35354;51.296;16.924;2023-01-29T09:20:33;100508.31;;;1.72;79.83
49459;BME280;35354;51.296;16.924;2023-01-29T09:23:06;100481.78;;;1.72;79.95
49459;BME280;35354;51.296;16.924;2023-01-29T09:25:32;100509.31;;;2.23;79.12
49459;BME280;35354;51.296;16.924;2023-01-29T09:27:58;100487.91;;;2.49;78.50
49459;BME280;35354;51.296;16.924;2023-01-29T09:30:23;100478.44;;;2.71;77.01
49459;BME280;35354;51.296;16.924;2023-01-29T09:32:48;100453.53;;;2.81;76.62
49459;BME280;35354;51.296;16.924;2023-01-29T09:35:14;100483.50;;;3.11;75.68
49459;BME280;35354;51.296;16.924;2023-01-29T09:37:39;100445.75;;;3.05;75.49
49459;BME280;35354;51.296;16.924;2023-01-29T09:40:05;100444.88;;;3.17;75.21
49459;BME280;35354;51.296;16.924;2023-01-29T09:42:44;100463.69;;;3.34;74.79
49459;BME280;35354;51.296;16.924;2023-01-29T09:45:19;100477.41;;;3.38;74.76
49459;BME280;35354;51.296;16.924;2023-01-29T09:47:45;100418.28;;;3.13;74.60
49459;BME280;35354;51.296;16.924;2023-01-29T09:50:23;100462.81;;;3.34;74.35
49459;BME280;35354;51.296;16.924;2023-01-29T09:56:14;100470.63;;;3.03;74.29
49459;BME280;35354;51.296;16.924;2023-01-29T09:58:41;100457.78;;;3.02;74.85
49459;BME280;35354;51.296;16.924;2023-01-29T10:01:22;100460.34;;;2.98;75.18
49459;BME280;35354;51.296;16.924;2023-01-29T10:07:11;100426.09;;;2.78;75.31
49459;BME280;35354;51.296;16.924;2023-01-29T10:10:05;100412.41;;;2.76;75.51
49459;BME280;35354;51.296;16.924;2023-01-29T10:12:50;100415.00;;;2.74;75.96
49459;BME280;35354;51.296;16.924;2023-01-29T10:15:24;100436.34;;;2.98;76.13
49459;BME280;35354;51.296;16.924;2023-01-29T10:23:35;100438.06;;;2.94;75.94
49459;BME280;35354;51.296;16.924;2023-01-29T10:26:03;100428.66;;;2.87;76.04
49459;BME280;35354;51.296;16.924;2023-01-29T10:28:40;100423.53;;;2.77;76.06
49459;BME280;35354;51.296;16.924;2023-01-29T10:31:17;100423.56;;;2.67;76.03
49459;BME280;35354;51.296;16.924;2023-01-29T10:33:50;100420.16;;;2.59;77.03
49459;BME280;35354;51.296;16.924;2023-01-29T10:36:31;100419.28;;;2.56;76.86
49459;BME280;35354;51.296;16.924;2023-01-29T10:38:57;100421.03;;;2.49;76.88
49459;BME280;35354;51.296;16.924;2023-01-29T10:41:46;100426.16;;;2.40;77.18
49459;BME280;35354;51.296;16.924;2023-01-29T10:44:36;100421.03;;;2.34;77.17
49459;BME280;35354;51.296;16.924;2023-01-29T10:47:26;100411.63;;;2.33;77.24
49459;BME280;35354;51.296;16.924;2023-01-29T10:55:26;100407.31;;;2.32;77.87
49459;BME280;35354;51.296;16.924;2023-01-29T10:58:10;100395.34;;;2.32;77.57
49459;BME280;35354;51.296;16.924;2023-01-29T11:00:40;100338.84;;;2.08;77.64
49459;BME280;35354;51.296;16.924;2023-01-29T11:03:24;100359.38;;;2.17;77.94
49459;BME280;35354;51.296;16.924;2023-01-29T11:06:29;100387.63;;;2.34;78.09
49459;BME280;35354;51.296;16.924;2023-01-29T11:11:38;100385.91;;;2.39;78.30
49459;BME280;35354;51.296;16.924;2023-01-29T11:14:11;100384.19;;;2.41;78.56
49459;BME280;35354;51.296;16.924;2023-01-29T11:16:46;100383.34;;;2.40;78.30
49459;BME280;35354;51.296;16.924;2023-01-29T11:19:13;100355.09;;;2.25;78.29
49459;BME280;35354;51.296;16.924;2023-01-29T11:21:59;100370.47;;;2.31;78.45
49459;BME280;35354;51.296;16.924;2023-01-29T11:24:25;100380.78;;;2.30;79.44
49459;BME280;35354;51.296;16.924;2023-01-29T11:26:53;100354.25;;;2.20;79.33
49459;BME280;35354;51.296;16.924;2023-01-29T11:31:51;100380.75;;;2.31;79.96
49459;BME280;35354;51.296;16.924;2023-01-29T11:34:20;100373.06;;;2.27;80.38
49459;BME280;35354;51.296;16.924;2023-01-29T11:36:55;100364.50;;;2.24;80.43
49459;BME280;35354;51.296;16.924;2023-01-29T11:39:22;100309.72;;;1.95;80.55
49459;BME280;35354;51.296;16.924;2023-01-29T11:44:41;100345.66;;;2.16;81.53
49459;BME280;35354;51.296;16.924;2023-01-29T11:47:27;100344.81;;;2.17;81.87
49459;BME280;35354;51.296;16.924;2023-01-29T11:49:57;100337.94;;;2.22;82.37
49459;BME280;35354;51.296;16.924;2023-01-29T11:52:38;100314.84;;;2.09;82.68
49459;BME280;35354;51.296;16.924;2023-01-29T11:55:25;100319.09;;;2.14;82.85
49459;BME280;35354;51.296;16.924;2023-01-29T11:57:58;100263.50;;;1.83;82.75
49459;BME280;35354;51.296;16.924;2023-01-29T12:00:34;100304.56;;;2.09;83.13
49459;BME280;35354;51.296;16.924;2023-01-29T12:03:15;100299.41;;;2.15;83.67
49459;BME280;35354;51.296;16.924;2023-01-29T12:06:05;100293.41;;;2.17;83.67
49459;BME280;35354;51.296;16.924;2023-01-29T12:08:37;100283.13;;;2.23;84.14
49459;BME280;35354;51.296;16.924;2023-01-29T12:11:12;100252.31;;;2.10;83.82
49459;BME280;35354;51.296;16.924;2023-01-29T12:13:40;100251.44;;;2.14;84.15
49459;BME280;35354;51.296;16.924;2023-01-29T12:16:19;100239.47;;;2.11;84.31
49459;BME280;35354;51.296;16.924;2023-01-29T12:19:04;100249.72;;;2.13;84.20
49459;BME280;35354;51.296;16.924;2023-01-29T12:27:04;100240.31;;;2.19;83.80
49459;BME280;35354;51.296;16.924;2023-01-29T12:29:41;100241.13;;;2.26;84.20
49459;BME280;35354;51.296;16.924;2023-01-29T12:35:15;100253.03;;;2.47;83.76
49459;BME280;35354;51.296;16.924;2023-01-29T12:40:15;100236.78;;;2.42;83.48
49459;BME280;35354;51.296;16.924;2023-01-29T12:42:43;100237.59;;;2.48;83.46
49459;BME280;35354;51.296;16.924;2023-01-29T12:45:16;100222.22;;;2.45;83.38
49459;BME280;35354;51.296;16.924;2023-01-29T12:47:43;100229.88;;;2.58;83.42
49459;BME280;35354;51.296;16.924;2023-01-29T12:50:19;100230.69;;;2.60;83.29
49459;BME280;35354;51.296;16.924;2023-01-29T12:52:52;100222.94;;;2.67;83.37
49459;BME280;35354;51.296;16.924;2023-01-29T12:55:26;100214.38;;;2.67;83.11
49459;BME280;35354;51.296;16.924;2023-01-29T12:58:01;100194.72;;;2.55;82.93
49459;BME280;35354;51.296;16.924;2023-01-29T13:00:31;100208.38;;;2.71;82.79
49459;BME280;35354;51.296;16.924;2023-01-29T13:03:07;100219.47;;;2.73;82.44
49459;BME280;35354;51.296;16.924;2023-01-29T13:05:41;100169.91;;;2.48;82.53
49459;BME280;35354;51.296;16.924;2023-01-29T13:08:18;100190.44;;;2.53;82.76
49459;BME280;35354;51.296;16.924;2023-01-29T13:10:48;100217.72;;;2.78;82.24
49459;BME280;35354;51.296;16.924;2023-01-29T13:13:25;100213.47;;;2.72;82.93
49459;BME280;35354;51.296;16.924;2023-01-29T13:15:52;100193.84;;;2.62;82.97
49459;BME280;35354;51.296;16.924;2023-01-29T13:18:52;100189.53;;;2.64;82.76
49459;BME280;35354;51.296;16.924;2023-01-29T13:21:22;100208.28;;;2.83;83.33
49459;BME280;35354;51.296;16.924;2023-01-29T13:24:15;100211.69;;;2.82;82.95
49459;BME280;35354;51.296;16.924;2023-01-29T13:26:45;100182.66;;;2.71;82.80
49459;BME280;35354;51.296;16.924;2023-01-29T13:29:23;100200.59;;;2.80;82.92
49459;BME280;35354;51.296;16.924;2023-01-29T13:31:49;100181.78;;;2.70;82.87
49459;BME280;35354;51.296;16.924;2023-01-29T13:36:51;100166.47;;;2.50;83.40
49459;BME280;35354;51.296;16.924;2023-01-29T13:39:39;100202.31;;;2.77;83.58
49459;BME280;35354;51.296;16.924;2023-01-29T13:42:18;100174.16;;;2.58;83.79
49459;BME280;35354;51.296;16.924;2023-01-29T13:44:49;100172.41;;;2.62;84.02
49459;BME280;35354;51.296;16.924;2023-01-29T13:47:35;100169.00;;;2.55;84.11
49459;BME280;35354;51.296;16.924;2023-01-29T13:50:36;100181.88;;;2.58;84.38
49459;BME280;35354;51.296;16.924;2023-01-29T13:53:03;100187.78;;;2.69;84.71
49459;BME280;35354;51.296;16.924;2023-01-29T13:55:38;100156.13;;;2.57;84.84
49459;BME280;35354;51.296;16.924;2023-01-29T14:00:58;100184.31;;;2.73;85.01
49459;BME280;35354;51.296;16.924;2023-01-29T14:13:44;100151.91;;;2.49;86.12
49459;BME280;35354;51.296;16.924;2023-01-29T14:18:50;100146.78;;;2.46;86.96
49459;BME280;35354;51.296;16.924;2023-01-29T14:21:20;100172.44;;;2.59;87.58
49459;BME280;35354;51.296;16.924;2023-01-29T14:23:51;100169.81;;;2.63;87.84
49459;BME280;35354;51.296;16.924;2023-01-29T14:31:59;100188.63;;;2.73;89.52
49459;BME280;35354;51.296;16.924;2023-01-29T14:34:31;100164.72;;;2.56;89.83
49459;BME280;35354;51.296;16.924;2023-01-29T14:37:34;100198.16;;;2.57;90.59